sim
Sign-in with your pilot id or email,
or register
Callsign
Passwort

Schedule Details

Flight Number: RYR1004 (1)
Departure: Thessaloniki International Airport (LGTS) at 05:00
Arrival: Warsaw Modlin Airport (EPMO) at 07:15
Route: Ryanair Passenger Schedule. Enter filed route here before submitting Pirep.

Weather Information
Getting current METAR information for LGTS 211620Z 36006KT CAVOK 14/00 Q1022 NOSIG
Getting current METAR information for EPMO 211600Z 28007KT 8000 -RA SCT026 OVC032 05/04 Q1018

Schedule Frequency

Route Map